KFHU/FHU METAR and TAF weather

Enter ICAO airport designator
Station Type Date Time Source
KFHU METAR 2022/05/24 10:58 UTC NOAA

KFHU 241058Z AUTO 25006KT 9SM CLR 17/M02 A2995 RMK AO2 SLP070 T01671019


Station Type Date Time Source
KFHU Decoded METAR 2022/05/24 10:58 UTC NOAA

Fort Huachuca, Libby AAF Ft Huachuca, AZ, United States (KFHU) 46-98N 110-20W
May 24, 2022 - 06:58 AM EDT / 2022.05.24 1058 UTC
Wind: from the WSW (250 degrees) at 7 MPH (6 KT):0
Visibility: 9 mile(s):0
Sky conditions: clear
Temperature: 62.1 F (16.7 C)
Dew Point: 28.6 F (-1.9 C)
Relative Humidity: 27%
Pressure (altimeter): 29.95 in. Hg (1014 hPa)
ob: KFHU 241058Z AUTO 25006KT 9SM CLR 17/M02 A2995 RMK AO2 SLP070 T01671019
cycle: 11

Station Type Date Time Source
KFHU TAF 2022/05/24 06:13 UTC NOAA

TAF KFHU 240600Z 2406/2512 27009KT 9999 FEW330 QNH2995INS
BECMG 2408/2409 23006KT 9999 FEW330 QNH2995INS
BECMG 2417/2418 30012G20KT 9999 FEW340 510003 QNH2991INS
TEMPO 2419/2502 31016G27KT 520005
BECMG 2501/2502 29011G16KT 9999 SKC 510003 QNH2993INS
BECMG 2503/2504 26011KT 9999 SKC QNH2999INS WND 24007KT AFT 2508 TX30/2422Z TN14/2413Z

Example: see airport list